Time;durP1;ratioP1;P1;durP2;ratioP2;P2;SDS_P1;SDS_P2;PMS_P1;PMS_P2;Temp;Humidity;BMP_temperature;BMP_pressure;BME280_temperature;BME280_humidity;BME280_pressure;Samples;Min_cycle;Max_cycle;Signal;HPM_P1;HPM_P2
2022/11/11 00:01:14;;;;;;;19.38;13.75;;;5.80;99.90;;;;;;5019060;28;20052;-64
2022/11/11 00:04:00;;;;;;;22.98;15.88;;;5.70;99.90;;;;;;5019631;28;20427;-64
2022/11/11 00:06:46;;;;;;;20.50;14.90;;;5.70;99.90;;;;;;5015160;28;20114;-64
2022/11/11 00:09:31;;;;;;;20.98;13.73;;;5.70;99.90;;;;;;5018434;28;20076;-64
2022/11/11 00:12:17;;;;;;;19.52;13.77;;;5.70;99.90;;;;;;5018371;28;20076;-64
2022/11/11 00:15:04;;;;;;;18.42;13.88;;;5.70;99.90;;;;;;5021033;28;20427;-64
2022/11/11 00:27:06;;;;;;;15.43;11.88;;;5.60;99.90;;;;;;5018214;28;20411;-65
2022/11/11 00:29:51;;;;;;;13.00;10.00;;;5.60;99.90;;;;;;5012298;28;20079;-64
2022/11/11 00:32:37;;;;;;;13.77;9.75;;;5.50;99.90;;;;;;5021018;28;20072;-65
2022/11/11 00:38:45;;;;;;;17.73;11.77;;;5.50;99.90;;;;;;5016388;28;20703;-64
2022/11/11 00:41:31;;;;;;;15.57;9.88;;;5.50;99.90;;;;;;5019471;28;20389;-65
2022/11/11 00:44:17;;;;;;;11.07;8.45;;;5.40;99.90;;;;;;5019752;28;20060;-64
2022/11/11 00:53:31;;;;;;;14.10;8.00;;;5.30;99.90;;;;;;5021283;28;20053;-66
2022/11/11 00:56:17;;;;;;;9.57;7.35;;;5.20;99.90;;;;;;5020686;28;20068;-64
2022/11/11 00:59:05;;;;;;;8.98;6.50;;;5.20;99.90;;;;;;5023688;28;20076;-65
2022/11/11 01:01:50;;;;;;;10.27;7.95;;;5.10;99.90;;;;;;5016350;28;20159;-64
2022/11/11 01:04:35;;;;;;;9.20;7.30;;;5.10;99.90;;;;;;5015730;28;20549;-64
2022/11/11 01:07:22;;;;;;;8.07;6.65;;;5.10;99.90;;;;;;5014153;28;20183;-65
2022/11/11 01:10:07;;;;;;;10.23;7.32;;;5.00;99.90;;;;;;5022645;28;20469;-66
2022/11/11 01:13:10;;;;;;;8.30;6.72;;;5.00;99.90;;;;;;5023997;28;20060;-65
2022/11/11 01:16:02;;;;;;;8.70;6.13;;;5.00;99.90;;;;;;5023266;28;20416;-65
2022/11/11 01:18:49;;;;;;;8.07;6.50;;;4.90;99.90;;;;;;5023019;28;20431;-66
2022/11/11 01:21:34;;;;;;;8.43;5.88;;;4.90;99.90;;;;;;5014050;28;20435;-65
2022/11/11 01:24:20;;;;;;;7.63;6.10;;;4.80;99.90;;;;;;5022722;28;20615;-65
2022/11/11 01:27:06;;;;;;;9.32;6.47;;;4.80;99.90;;;;;;5022423;28;20056;-65
2022/11/11 01:29:51;;;;;;;9.95;7.10;;;4.70;99.90;;;;;;5022484;28;20475;-65
2022/11/11 01:32:37;;;;;;;9.10;6.97;;;4.70;99.90;;;;;;5022244;28;20057;-65
2022/11/11 01:35:22;;;;;;;10.57;7.07;;;4.70;99.90;;;;;;5018334;28;20087;-65
2022/11/11 01:38:09;;;;;;;7.85;5.88;;;4.70;99.90;;;;;;5022094;28;20068;-65
2022/11/11 01:40:55;;;;;;;6.93;6.17;;;4.60;99.90;;;;;;5021384;28;20056;-65
2022/11/11 01:43:40;;;;;;;7.28;5.63;;;4.60;99.90;;;;;;5024256;28;20427;-65
2022/11/11 01:46:35;;;;;;;7.40;5.93;;;4.60;99.90;;;;;;5021149;28;20609;-64
2022/11/11 01:49:56;;;;;;;8.07;5.50;;;4.60;99.90;;;;;;5022193;28;20059;-65
2022/11/11 01:52:44;;;;;;;6.95;5.32;;;4.50;99.90;;;;;;5025832;28;20735;-65
2022/11/11 01:55:30;;;;;;;6.95;5.20;;;4.50;99.90;;;;;;5040334;28;20052;-65
2022/11/11 01:58:17;;;;;;;5.53;4.82;;;4.50;99.90;;;;;;5041986;28;20468;-65
2022/11/11 02:01:04;;;;;;;8.93;6.03;;;4.50;99.90;;;;;;5039926;28;20064;-65
2022/11/11 02:07:03;;;;;;;8.57;4.78;;;4.40;99.90;;;;;;5044660;28;20379;-65
2022/11/11 02:09:51;;;;;;;5.50;4.40;;;4.40;99.90;;;;;;5039836;28;20441;-65
2022/11/11 02:15:41;;;;;;;4.85;4.03;;;4.30;99.90;;;;;;5041888;28;20289;-66
2022/11/11 02:18:27;;;;;;;4.10;3.70;;;4.30;99.90;;;;;;5039498;28;20071;-64
2022/11/11 02:21:27;;;;;;;5.63;3.80;;;4.30;99.90;;;;;;5039124;28;20052;-65
2022/11/11 02:24:18;;;;;;;7.82;4.47;;;4.20;99.90;;;;;;5041488;28;20052;-65
2022/11/11 02:27:06;;;;;;;5.35;3.83;;;4.20;99.90;;;;;;5041928;28;20567;-65
2022/11/11 02:29:54;;;;;;;;;;;4.20;99.90;;;;;;5040069;28;20462;-67
2022/11/11 02:32:43;;;;;;;5.68;4.53;;;4.30;99.90;;;;;;5041860;28;20278;-64
2022/11/11 02:35:39;;;;;;;7.47;5.18;;;4.20;99.90;;;;;;5041329;28;20161;-65
2022/11/11 02:38:26;;;;;;;8.52;5.57;;;4.20;99.90;;;;;;5038200;28;20048;-64
2022/11/11 02:44:15;;;;;;;9.93;7.55;;;4.20;99.90;;;;;;5040597;28;20056;-64
2022/11/11 02:47:00;;;;;;;17.17;8.85;;;4.20;99.90;;;;;;5038811;28;20056;-64
2022/11/11 02:49:46;;;;;;;12.70;8.55;;;4.20;99.90;;;;;;5040041;28;20105;-65
2022/11/11 02:52:32;;;;;;;9.70;6.32;;;4.10;99.90;;;;;;5040543;28;20498;-64
2022/11/11 02:55:17;;;;;;;13.88;6.90;;;4.10;99.90;;;;;;5039281;28;20415;-64
2022/11/11 02:58:03;;;;;;;10.18;6.70;;;4.10;99.90;;;;;;5038991;28;20117;-63
2022/11/11 03:00:48;;;;;;;15.73;8.40;;;4.10;99.90;;;;;;5037568;28;20059;-65
2022/11/11 03:03:34;;;;;;;16.40;9.15;;;4.00;99.90;;;;;;5031338;28;20060;-64
2022/11/11 03:06:19;;;;;;;17.48;9.52;;;4.00;99.90;;;;;;5042678;28;20243;-66
2022/11/11 03:09:05;;;;;;;24.05;10.95;;;4.00;99.90;;;;;;5039520;28;20502;-64
2022/11/11 03:11:50;;;;;;;20.30;13.07;;;4.10;99.90;;;;;;5039499;28;20060;-64
2022/11/11 03:14:36;;;;;;;21.13;11.90;;;4.10;99.90;;;;;;5037642;28;20553;-64
2022/11/11 03:17:39;;;;;;;24.85;13.25;;;4.10;99.90;;;;;;5039155;28;20482;-64
2022/11/11 03:23:29;;;;;;;28.27;15.55;;;4.20;99.90;;;;;;5040101;28;20064;-65
2022/11/11 03:26:14;;;;;;;30.23;14.57;;;4.30;99.90;;;;;;5037260;28;20110;-65
2022/11/11 03:29:00;;;;;;;16.40;11.00;;;4.30;99.90;;;;;;5039038;28;20056;-65
2022/11/11 03:31:46;;;;;;;17.55;11.40;;;4.40;99.90;;;;;;5039310;28;20059;-65
2022/11/11 03:34:31;;;;;;;15.43;9.95;;;4.40;99.90;;;;;;5038679;28;20403;-65
2022/11/11 03:40:21;;;;;;;14.48;9.10;;;4.50;99.90;;;;;;5040695;28;20183;-64
2022/11/11 03:43:07;;;;;;;14.73;9.82;;;4.50;99.90;;;;;;5039150;28;20538;-64
2022/11/11 03:45:54;;;;;;;23.15;11.15;;;4.50;99.90;;;;;;5040246;28;20141;-64
2022/11/11 03:48:39;;;;;;;27.58;11.48;;;4.50;99.90;;;;;;5036920;28;20063;-64
2022/11/11 03:51:25;;;;;;;21.92;11.88;;;4.40;99.90;;;;;;5036349;28;20428;-64
2022/11/11 03:54:10;;;;;;;24.15;12.45;;;4.50;99.90;;;;;;5039028;28;20081;-65
2022/11/11 03:57:29;;;;;;;21.38;11.23;;;4.50;99.90;;;;;;5037869;28;20379;-65
2022/11/11 04:00:02;;;;;;;36.92;14.10;;;4.50;99.90;;;;;;5038326;28;20133;-65
2022/11/11 04:12:22;;;;;;;34.20;16.20;;;4.60;99.90;;;;;;5036477;28;20055;-64
2022/11/11 04:18:12;;;;;;;29.85;15.18;;;4.60;99.90;;;;;;5040327;28;20704;-65
2022/11/11 04:24:02;;;;;;;29.83;16.88;;;4.70;99.90;;;;;;5043768;28;20051;-64
2022/11/11 04:26:47;;;;;;;27.70;15.45;;;4.70;99.90;;;;;;5045293;28;20102;-65
2022/11/11 04:29:33;;;;;;;27.85;15.95;;;4.70;99.90;;;;;;5044598;28;20059;-64
2022/11/11 04:32:38;;;;;;;28.20;14.43;;;4.80;99.90;;;;;;5041987;28;20105;-65
2022/11/11 04:35:25;;;;;;;35.67;14.80;;;4.80;99.90;;;;;;5041776;28;20056;-66
2022/11/11 04:41:14;;;;;;;21.88;10.90;;;4.80;99.90;;;;;;5040996;28;20114;-65
2022/11/11 04:47:04;;;;;;;21.08;11.73;;;4.80;99.90;;;;;;5042064;28;20288;-65
2022/11/11 04:49:49;;;;;;;22.13;12.10;;;4.80;99.90;;;;;;5040932;28;20072;-65
2022/11/11 04:52:34;;;;;;;23.88;12.95;;;4.80;99.90;;;;;;5041265;28;20792;-65
2022/11/11 04:58:31;;;;;;;21.88;12.60;;;4.90;99.90;;;;;;5041530;28;20537;-65
2022/11/11 05:03:14;;;;;;;26.60;13.65;;;4.90;99.90;;;;;;5040780;28;20600;-65
2022/11/11 05:04:21;;;;;;;20.27;10.80;;;4.90;99.90;;;;;;5039213;28;20542;-65
2022/11/11 05:10:11;;;;;;;20.83;10.13;;;5.00;99.90;;;;;;5039950;28;20056;-64
2022/11/11 05:21:19;;;;;;;20.77;10.18;;;5.00;99.90;;;;;;5043084;28;20751;-64
2022/11/11 05:22:31;;;;;;;16.83;10.32;;;5.10;99.90;;;;;;5039930;28;20481;-65
2022/11/11 05:25:28;;;;;;;15.75;9.82;;;5.10;99.90;;;;;;5028939;28;20228;-63
2022/11/11 05:28:13;;;;;;;18.83;11.48;;;5.10;99.90;;;;;;5042183;28;20059;-65
2022/11/11 05:30:58;;;;;;;16.35;9.73;;;5.10;99.90;;;;;;5038536;28;20044;-64
2022/11/11 05:33:44;;;;;;;13.27;8.65;;;5.10;99.90;;;;;;5038457;28;20233;-65
2022/11/11 05:36:29;;;;;;;15.02;9.73;;;5.10;99.90;;;;;;5042422;28;20244;-66
2022/11/11 05:39:15;;;;;;;16.15;9.55;;;5.10;99.90;;;;;;5042776;28;20059;-64
2022/11/11 05:42:00;;;;;;;16.13;10.02;;;5.10;99.90;;;;;;5040331;28;20506;-65
2022/11/11 05:44:45;;;;;;;15.20;9.50;;;5.10;99.90;;;;;;5042985;28;20064;-64
2022/11/11 05:47:31;;;;;;;15.90;8.80;;;5.10;99.90;;;;;;5040488;28;20122;-63
2022/11/11 05:50:16;;;;;;;14.70;7.88;;;5.10;99.90;;;;;;5040985;28;20182;-64
2022/11/11 05:53:02;;;;;;;11.75;7.63;;;5.10;99.90;;;;;;5031425;28;20056;-64
2022/11/11 05:55:49;;;;;;;12.98;7.82;;;5.00;99.90;;;;;;5046321;28;20063;-65
2022/11/11 05:58:34;;;;;;;10.55;6.70;;;5.00;99.90;;;;;;5045439;28;20063;-64
2022/11/11 06:01:20;;;;;;;13.10;7.68;;;5.00;99.90;;;;;;5042810;28;20068;-65
2022/11/11 06:04:06;;;;;;;10.52;7.32;;;5.00;99.90;;;;;;5045192;28;20498;-65
2022/11/11 06:06:52;;;;;;;11.93;7.68;;;5.00;99.90;;;;;;5039527;28;20542;-65
2022/11/11 06:09:37;;;;;;;15.38;7.15;;;5.00;99.90;;;;;;5040684;28;20047;-65
2022/11/11 06:12:23;;;;;;;10.90;7.22;;;5.00;99.90;;;;;;5038857;28;20055;-65
2022/11/11 06:15:08;;;;;;;11.48;6.93;;;4.90;99.90;;;;;;5040803;28;20874;-65
2022/11/11 06:17:54;;;;;;;9.27;6.40;;;4.90;99.90;;;;;;5042219;28;20092;-65
2022/11/11 06:20:39;;;;;;;9.10;6.40;;;4.90;99.90;;;;;;5041592;28;20072;-65
2022/11/11 06:23:27;;;;;;;10.43;7.00;;;4.90;99.90;;;;;;5042842;28;20553;-65
2022/11/11 06:26:13;;;;;;;12.77;6.32;;;4.80;99.90;;;;;;5038325;28;20060;-64
2022/11/11 06:28:59;;;;;;;15.82;7.00;;;4.80;99.90;;;;;;5040556;28;20206;-64
2022/11/11 06:31:44;;;;;;;14.63;8.10;;;4.70;99.90;;;;;;5036907;28;20048;-64
2022/11/11 06:34:30;;;;;;;15.63;7.22;;;4.70;99.90;;;;;;5039966;28;20158;-64
2022/11/11 06:37:15;;;;;;;8.98;6.07;;;4.70;99.90;;;;;;5039387;28;20103;-64
2022/11/11 06:40:01;;;;;;;10.75;6.55;;;4.60;99.90;;;;;;5042382;28;20208;-64
2022/11/11 06:42:46;;;;;;;12.45;7.97;;;4.60;99.90;;;;;;5031752;28;20205;-64
2022/11/11 06:45:33;;;;;;;11.38;7.68;;;4.40;99.90;;;;;;5039520;28;20063;-64
2022/11/11 06:48:20;;;;;;;12.33;7.33;;;4.40;99.90;;;;;;5041715;28;20577;-64
2022/11/11 06:51:06;;;;;;;10.35;7.75;;;4.30;99.90;;;;;;5037054;28;20419;-64
2022/11/11 06:53:51;;;;;;;11.80;7.60;;;4.30;99.90;;;;;;5041513;28;20064;-65
2022/11/11 06:56:36;;;;;;;12.15;7.57;;;4.40;99.90;;;;;;5041783;28;20079;-65
2022/11/11 06:59:22;;;;;;;26.42;12.23;;;4.40;99.90;;;;;;5041585;28;20418;-66
2022/11/11 07:02:12;;;;;;;13.63;8.82;;;4.40;99.90;;;;;;5037509;28;20062;-65
2022/11/11 07:04:58;;;;;;;20.52;11.27;;;4.50;99.90;;;;;;5039488;28;20149;-65
2022/11/11 07:07:44;;;;;;;30.17;13.82;;;4.50;99.90;;;;;;5038251;28;20052;-65
2022/11/11 07:10:30;;;;;;;45.50;18.60;;;4.60;99.90;;;;;;5037972;28;20063;-66
2022/11/11 07:13:15;;;;;;;55.58;22.65;;;4.60;99.90;;;;;;5037335;28;20067;-64
2022/11/11 07:16:02;;;;;;;53.00;21.73;;;4.70;99.90;;;;;;5039894;28;20541;-64
2022/11/11 07:18:47;;;;;;;43.47;18.27;;;4.70;99.90;;;;;;5042360;28;20536;-53
2022/11/11 07:21:33;;;;;;;45.95;18.55;;;4.80;99.90;;;;;;5024593;28;20184;-56
2022/11/11 07:24:18;;;;;;;36.60;18.33;;;4.80;99.90;;;;;;5041461;28;20080;-56
2022/11/11 07:27:04;;;;;;;35.90;16.48;;;4.90;99.90;;;;;;5039222;28;20243;-55
2022/11/11 07:29:49;;;;;;;31.95;15.73;;;4.90;99.90;;;;;;5041910;28;20090;-56
2022/11/11 07:32:35;;;;;;;27.08;14.73;;;4.90;99.90;;;;;;5038255;28;20060;-55
2022/11/11 07:35:21;;;;;;;17.02;11.32;;;5.00;99.90;;;;;;5038164;28;20097;-56
2022/11/11 07:38:07;;;;;;;20.08;11.80;;;5.10;99.90;;;;;;5042267;28;20202;-56
2022/11/11 07:40:52;;;;;;;20.48;10.77;;;5.10;99.90;;;;;;5035213;28;20085;-55
2022/11/11 07:43:38;;;;;;;15.65;9.40;;;5.20;99.90;;;;;;5037575;28;20079;-54
2022/11/11 07:46:23;;;;;;;20.10;10.80;;;5.20;99.90;;;;;;5039311;28;20583;-55
2022/11/11 07:49:09;;;;;;;13.90;8.10;;;5.20;99.90;;;;;;5039973;28;20051;-56
2022/11/11 07:51:54;;;;;;;13.40;8.05;;;5.20;99.90;;;;;;5036394;28;20048;-55
2022/11/11 07:54:40;;;;;;;13.70;8.75;;;5.20;99.90;;;;;;5039197;28;20439;-54
2022/11/11 07:57:25;;;;;;;12.38;7.90;;;5.20;99.90;;;;;;5039946;28;20342;-54
2022/11/11 08:00:11;;;;;;;12.23;8.30;;;5.20;99.90;;;;;;5039303;28;20095;-55
2022/11/11 08:02:57;;;;;;;11.65;8.23;;;5.20;99.90;;;;;;5040231;28;20062;-56
2022/11/11 08:05:44;;;;;;;;;;;5.10;99.90;;;;;;5039676;28;20063;-55
2022/11/11 08:08:30;;;;;;;11.50;7.68;;;5.10;99.90;;;;;;5038044;28;19931;-56
2022/11/11 08:11:16;;;;;;;16.50;8.90;;;5.10;99.90;;;;;;5036347;28;20059;-55
2022/11/11 08:14:02;;;;;;;19.80;9.10;;;5.20;99.90;;;;;;5039339;28;20182;-52
2022/11/11 08:16:47;;;;;;;15.52;9.05;;;5.10;99.90;;;;;;5038344;28;20329;-53
2022/11/11 08:19:32;;;;;;;13.05;8.93;;;5.20;99.90;;;;;;5038136;28;20075;-49
2022/11/11 08:22:18;;;;;;;13.73;9.80;;;5.30;99.90;;;;;;5037339;28;20142;-50
2022/11/11 08:25:05;;;;;;;13.93;9.88;;;5.40;99.90;;;;;;5038918;28;20752;-52
2022/11/11 08:27:59;;;;;;;17.15;10.20;;;5.40;99.90;;;;;;5035884;28;20530;-54
2022/11/11 08:30:45;;;;;;;15.85;10.65;;;5.50;99.90;;;;;;5041259;28;20133;-54
2022/11/11 08:33:31;;;;;;;14.20;9.90;;;5.60;99.90;;;;;;5037619;28;20071;-53
2022/11/11 08:36:19;;;;;;;14.95;10.23;;;5.70;99.90;;;;;;5035609;28;20139;-54
2022/11/11 08:39:06;;;;;;;12.00;8.52;;;5.80;99.90;;;;;;5040658;28;20281;-55
2022/11/11 08:41:52;;;;;;;13.10;9.57;;;6.00;99.90;;;;;;5037263;28;20407;-53
2022/11/11 08:44:37;;;;;;;15.05;9.30;;;6.10;99.90;;;;;;5037615;28;20774;-56
2022/11/11 08:47:23;;;;;;;14.85;10.38;;;6.30;99.90;;;;;;5040547;28;20599;-56
2022/11/11 08:50:09;;;;;;;14.93;8.63;;;6.70;99.90;;;;;;5038626;28;20533;-57
2022/11/11 08:52:54;;;;;;;7.70;5.88;;;7.00;99.90;;;;;;5037625;28;20561;-55
2022/11/11 08:55:40;;;;;;;8.65;6.13;;;7.30;99.90;;;;;;5039175;28;20048;-53
2022/11/11 08:58:25;;;;;;;12.85;7.40;;;7.60;99.90;;;;;;5036505;28;20249;-58
2022/11/11 09:01:12;;;;;;;11.20;7.55;;;8.00;99.90;;;;;;5035748;28;20146;-55
2022/11/11 09:03:58;;;;;;;10.07;6.38;;;8.40;99.90;;;;;;5038038;28;20160;-55
2022/11/11 09:07:04;;;;;;;5.82;4.57;;;8.70;99.90;;;;;;5040791;28;20363;-56
2022/11/11 09:09:49;;;;;;;5.68;4.53;;;9.00;99.90;;;;;;5041559;28;20043;-56
2022/11/11 09:12:35;;;;;;;11.00;4.25;;;9.30;99.90;;;;;;5039818;28;20060;-55
2022/11/11 09:15:20;;;;;;;7.70;5.28;;;9.60;99.90;;;;;;5040964;28;20092;-56
2022/11/11 09:18:06;;;;;;;7.82;4.50;;;9.90;99.90;;;;;;5042049;28;20084;-56
2022/11/11 09:20:51;;;;;;;6.40;4.60;;;10.10;99.90;;;;;;5031822;28;20102;-56
2022/11/11 09:23:37;;;;;;;7.05;4.03;;;10.30;99.90;;;;;;5042371;28;20068;-57
2022/11/11 09:26:22;;;;;;;8.95;4.20;;;10.40;99.90;;;;;;5039398;28;20407;-56
2022/11/11 09:29:08;;;;;;;10.45;6.70;;;10.50;99.90;;;;;;5042546;28;20056;-56
2022/11/11 09:31:53;;;;;;;8.80;6.25;;;10.50;99.90;;;;;;5039792;28;20541;-55
2022/11/11 09:34:39;;;;;;;12.50;6.70;;;10.60;99.90;;;;;;5041893;28;20315;-54
2022/11/11 09:37:24;;;;;;;10.02;5.68;;;10.60;99.90;;;;;;5041219;28;20402;-56
2022/11/11 09:40:20;;;;;;;11.65;6.45;;;10.60;99.90;;;;;;5041403;28;20380;-57
2022/11/11 09:43:41;;;;;;;8.15;4.78;;;10.70;99.90;;;;;;5038544;28;20059;-56
2022/11/11 09:46:45;;;;;;;7.07;4.95;;;10.90;99.90;;;;;;5028402;28;20060;-55
2022/11/11 09:49:42;;;;;;;7.25;4.95;;;10.90;99.90;;;;;;5041441;28;20064;-58
2022/11/11 09:52:42;;;;;;;8.68;5.65;;;11.00;99.90;;;;;;5041124;28;20094;-55
2022/11/11 09:55:38;;;;;;;7.53;5.60;;;11.20;99.90;;;;;;5038453;28;20075;-57
2022/11/11 09:58:38;;;;;;;9.95;7.10;;;11.20;99.90;;;;;;5041130;28;20074;-56
2022/11/11 10:01:32;;;;;;;12.20;7.47;;;11.30;99.90;;;;;;5041981;28;20064;-57
2022/11/11 10:04:34;;;;;;;12.65;8.50;;;11.40;99.90;;;;;;5042078;28;20055;-57
2022/11/11 10:07:52;;;;;;;12.57;8.55;;;11.30;99.90;;;;;;5032417;28;20064;-55
2022/11/11 10:10:46;;;;;;;9.95;6.70;;;11.30;99.90;;;;;;5042747;28;20564;-56
2022/11/11 10:13:36;;;;;;;12.95;7.55;;;11.20;99.90;;;;;;5039315;28;20806;-57
2022/11/11 10:16:37;;;;;;;8.38;6.78;;;11.30;99.90;;;;;;5041491;28;20509;-58
2022/11/11 10:19:43;;;;;;;10.15;7.22;;;11.30;99.90;;;;;;5043280;28;20091;-57
2022/11/11 10:22:38;;;;;;;9.20;6.88;;;11.30;99.90;;;;;;5040502;28;20442;-56
2022/11/11 10:25:25;;;;;;;12.00;8.43;;;11.30;99.90;;;;;;5043525;28;20055;-58
2022/11/11 10:28:19;;;;;;;14.98;7.88;;;11.40;99.90;;;;;;5040018;28;20111;-55
2022/11/11 10:31:21;;;;;;;11.32;8.52;;;11.50;99.90;;;;;;5041414;28;20234;-55
2022/11/11 10:34:11;;;;;;;14.20;8.60;;;11.70;99.90;;;;;;5032110;28;20202;-58
2022/11/11 10:36:58;;;;;;;12.20;9.10;;;11.80;99.90;;;;;;5039996;28;20079;-56
2022/11/11 10:39:59;;;;;;;18.40;11.32;;;12.00;99.90;;;;;;5036989;28;21042;-56
2022/11/11 10:42:44;;;;;;;12.02;9.10;;;12.10;99.90;;;;;;5039211;28;20078;-59
2022/11/11 10:46:00;;;;;;;14.10;10.10;;;12.00;99.90;;;;;;5040754;28;20489;-57
2022/11/11 10:49:07;;;;;;;10.73;7.82;;;11.80;99.90;;;;;;5041357;28;20051;-57
2022/11/11 10:52:17;;;;;;;12.25;9.00;;;11.80;99.90;;;;;;5041690;28;20051;-56
2022/11/11 10:55:13;;;;;;;12.07;8.70;;;11.70;99.90;;;;;;5039181;28;20059;-56
2022/11/11 10:58:34;;;;;;;13.52;8.95;;;11.60;99.90;;;;;;5037444;28;20577;-57
2022/11/11 11:01:28;;;;;;;13.07;10.30;;;11.50;99.90;;;;;;5018225;28;20059;-57
2022/11/11 11:04:44;;;;;;;13.00;8.90;;;11.40;99.90;;;;;;5038812;28;20653;-56
2022/11/11 11:07:45;;;;;;;16.10;9.02;;;11.30;99.90;;;;;;5029994;28;20194;-57
2022/11/11 11:10:42;;;;;;;11.65;8.68;;;11.10;99.90;;;;;;5037473;28;20064;-58
2022/11/11 11:13:31;;;;;;;12.25;8.18;;;11.00;99.90;;;;;;5039458;28;20064;-57
2022/11/11 11:16:31;;;;;;;12.13;9.65;;;10.90;99.90;;;;;;5037700;28;20573;-57
2022/11/11 11:19:19;;;;;;;10.32;8.27;;;10.80;99.90;;;;;;5042036;28;20537;-58
2022/11/11 11:22:04;;;;;;;;;;;10.70;99.90;;;;;;5042279;28;20055;-58
2022/11/11 11:24:49;;;;;;;13.82;9.88;;;10.60;99.90;;;;;;5038847;28;19931;-56
2022/11/11 11:27:34;;;;;;;14.10;9.77;;;10.60;99.90;;;;;;5039015;28;20545;-57
2022/11/11 11:30:23;;;;;;;9.32;7.80;;;10.60;99.90;;;;;;5026828;28;20063;-56
2022/11/11 11:33:09;;;;;;;15.57;8.65;;;10.60;99.90;;;;;;5038524;28;20056;-57
2022/11/11 11:35:54;;;;;;;13.60;9.30;;;10.70;99.90;;;;;;5036626;28;20056;-56
2022/11/11 11:38:49;;;;;;;12.05;9.02;;;10.80;99.90;;;;;;5039114;28;20072;-57
2022/11/11 11:41:43;;;;;;;12.88;9.25;;;10.90;99.90;;;;;;5036211;28;20286;-57
2022/11/11 11:44:38;;;;;;;14.43;9.20;;;11.10;99.90;;;;;;5037256;28;20504;-54
2022/11/11 11:47:36;;;;;;;14.65;9.40;;;11.20;99.90;;;;;;5024242;28;20056;-55
2022/11/11 11:50:37;;;;;;;14.93;10.10;;;11.30;99.90;;;;;;5039875;28;20051;-55
2022/11/11 11:53:50;;;;;;;12.73;8.07;;;11.50;99.90;;;;;;5042760;28;20199;-55
2022/11/11 11:56:43;;;;;;;12.30;8.38;;;11.60;99.90;;;;;;5041587;28;20059;-56
2022/11/11 11:59:49;;;;;;;14.25;9.45;;;11.80;99.90;;;;;;5040815;28;20087;-55
2022/11/11 12:03:05;;;;;;;10.13;8.23;;;11.90;99.90;;;;;;5041258;28;20102;-58
2022/11/11 12:06:09;;;;;;;10.32;8.50;;;12.10;99.90;;;;;;5035342;28;20056;-55
2022/11/11 12:09:04;;;;;;;10.88;8.85;;;12.30;99.90;;;;;;5056395;28;20103;-57
2022/11/11 12:12:01;;;;;;;13.30;9.68;;;12.40;99.90;;;;;;5040075;28;20260;-59
2022/11/11 12:15:09;;;;;;;12.63;8.38;;;12.50;99.90;;;;;;5042933;28;20054;-56
2022/11/11 12:18:16;;;;;;;12.83;10.13;;;12.50;99.90;;;;;;5042448;28;20186;-56
2022/11/11 12:21:13;;;;;;;13.55;9.52;;;12.40;99.90;;;;;;5051766;28;20427;-56
2022/11/11 12:23:58;;;;;;;15.68;10.07;;;12.40;99.90;;;;;;5038431;28;20060;-56
2022/11/11 12:27:21;;;;;;;10.25;8.25;;;12.30;99.90;;;;;;5041757;28;20067;-56
2022/11/11 12:30:27;;;;;;;13.60;9.75;;;12.40;99.90;;;;;;5041414;28;20423;-57
2022/11/11 12:33:50;;;;;;;14.50;8.73;;;12.50;99.90;;;;;;5041073;28;20387;-57
2022/11/11 12:36:40;;;;;;;13.40;9.60;;;12.80;99.90;;;;;;5038679;28;20434;-56
2022/11/11 12:39:44;;;;;;;12.45;9.60;;;13.00;99.90;;;;;;5040697;28;20052;-56
2022/11/11 12:43:07;;;;;;;13.52;10.25;;;13.20;99.90;;;;;;5043366;28;20060;-57
2022/11/11 12:46:04;;;;;;;13.23;9.55;;;13.40;99.90;;;;;;5044320;28;20064;-56
2022/11/11 12:48:53;;;;;;;15.15;9.85;;;13.60;99.90;;;;;;5043555;28;20120;-57
2022/11/11 12:52:05;;;;;;;15.57;8.98;;;13.80;99.90;;;;;;5043260;28;20055;-55
2022/11/11 12:54:56;;;;;;;12.48;10.07;;;14.00;99.90;;;;;;5027355;28;20187;-56
2022/11/11 12:57:58;;;;;;;14.13;9.68;;;14.00;99.90;;;;;;5048102;28;20056;-55
2022/11/11 13:01:01;;;;;;;11.95;9.82;;;14.20;99.90;;;;;;5044958;28;20217;-57
2022/11/11 13:03:54;;;;;;;14.93;9.55;;;14.40;99.90;;;;;;5045983;28;20067;-57
2022/11/11 13:07:08;;;;;;;14.60;9.60;;;14.60;99.90;;;;;;5040663;28;20281;-63
2022/11/11 13:10:31;;;;;;;12.10;9.57;;;14.70;99.90;;;;;;5043861;28;20105;-56
2022/11/11 13:13:54;;;;;;;13.73;9.55;;;14.70;99.90;;;;;;5042734;28;20663;-55
2022/11/11 13:16:39;;;;;;;14.10;10.00;;;14.70;99.90;;;;;;5043328;28;20884;-57
2022/11/11 13:19:36;;;;;;;10.23;8.48;;;14.70;99.90;;;;;;5042766;28;20059;-55
2022/11/11 13:22:23;;;;;;;12.25;10.02;;;14.70;99.90;;;;;;5044252;28;20072;-56
2022/11/11 13:25:15;;;;;;;12.97;10.20;;;14.70;99.90;;;;;;5046379;28;20066;-56
2022/11/11 13:28:14;;;;;;;14.10;9.48;;;14.50;99.90;;;;;;5043751;28;20175;-53
2022/11/11 13:31:23;;;;;;;11.32;9.23;;;14.40;99.90;;;;;;5042543;28;20059;-54
2022/11/11 13:34:12;;;;;;;14.55;10.60;;;14.20;99.90;;;;;;5042791;28;20120;-57
2022/11/11 13:36:58;;;;;;;14.27;10.98;;;14.00;99.90;;;;;;5045938;28;20457;-56
2022/11/11 13:39:48;;;;;;;13.45;10.55;;;13.70;99.90;;;;;;5042506;28;20496;-57
2022/11/11 13:42:51;;;;;;;12.93;10.93;;;13.50;99.90;;;;;;5045368;28;20060;-57
2022/11/11 13:45:40;;;;;;;15.30;9.93;;;13.20;99.90;;;;;;5044598;28;20067;-56
2022/11/11 13:48:37;;;;;;;20.10;12.30;;;12.90;99.90;;;;;;5040110;28;20059;-57
2022/11/11 13:51:40;;;;;;;15.25;11.30;;;12.70;99.90;;;;;;5043049;28;20150;-57
2022/11/11 13:54:33;;;;;;;21.20;12.25;;;12.50;99.90;;;;;;5043190;28;20159;-57
2022/11/11 13:57:21;;;;;;;15.10;11.35;;;12.30;99.90;;;;;;5040858;28;20072;-56
2022/11/11 14:00:25;;;;;;;19.02;13.23;;;12.10;99.90;;;;;;5043798;28;20707;-56
2022/11/11 14:03:18;;;;;;;19.10;14.13;;;11.80;99.90;;;;;;5042564;28;20593;-56
2022/11/11 14:06:13;;;;;;;21.73;14.40;;;11.60;99.90;;;;;;5044259;28;20536;-56
2022/11/11 14:08:58;;;;;;;17.98;13.85;;;11.30;99.90;;;;;;5040684;28;20098;-56
2022/11/11 14:11:44;;;;;;;22.80;14.13;;;11.20;99.90;;;;;;5045361;28;20055;-57
2022/11/11 14:14:35;;;;;;;21.75;15.30;;;11.00;99.90;;;;;;5045915;28;20048;-54
2022/11/11 14:17:21;;;;;;;21.13;15.27;;;10.80;99.90;;;;;;5047455;28;20169;-57
2022/11/11 14:20:29;;;;;;;19.48;14.48;;;10.70;99.90;;;;;;5046617;28;20503;-56
2022/11/11 14:23:16;;;;;;;20.08;14.55;;;10.50;99.90;;;;;;5047640;28;20059;-56
2022/11/11 14:26:05;;;;;;;;;;;10.40;99.90;;;;;;5050202;28;20060;-57
2022/11/11 14:29:04;;;;;;;26.33;16.75;;;10.40;99.90;;;;;;5045623;28;19947;-57
2022/11/11 14:32:04;;;;;;;24.65;16.83;;;10.30;99.90;;;;;;5043239;28;20062;-57
2022/11/11 14:35:10;;;;;;;20.90;14.75;;;10.10;99.90;;;;;;5045633;28;20390;-58
2022/11/11 14:38:10;;;;;;;25.00;17.52;;;10.00;99.90;;;;;;5046836;28;20055;-57
2022/11/11 14:40:56;;;;;;;23.27;16.50;;;9.90;99.90;;;;;;5047590;28;20064;-56
2022/11/11 14:43:41;;;;;;;27.17;16.50;;;9.80;99.90;;;;;;5047588;28;20668;-58
2022/11/11 14:46:27;;;;;;;24.17;15.98;;;9.70;99.90;;;;;;5044771;28;20385;-58
2022/11/11 14:49:44;;;;;;;26.58;19.00;;;9.70;99.90;;;;;;5044703;28;20530;-57
2022/11/11 14:52:41;;;;;;;23.70;16.52;;;9.60;99.90;;;;;;5046184;28;20056;-59
2022/11/11 14:55:33;;;;;;;24.40;17.52;;;9.50;99.90;;;;;;5048137;28;20060;-56
2022/11/11 14:58:33;;;;;;;31.13;16.85;;;9.40;99.90;;;;;;5046732;28;20052;-56
2022/11/11 15:01:20;;;;;;;27.35;18.15;;;9.30;99.90;;;;;;5045327;28;20136;-58
2022/11/11 15:04:06;;;;;;;24.67;17.25;;;9.20;99.90;;;;;;5042537;28;20110;-57
2022/11/11 15:06:57;;;;;;;26.60;17.75;;;9.20;99.90;;;;;;5042437;28;20561;-56
2022/11/11 15:09:51;;;;;;;25.92;17.58;;;9.20;99.90;;;;;;5041465;28;20517;-57
2022/11/11 15:13:04;;;;;;;24.88;16.38;;;9.10;99.90;;;;;;5046363;28;20537;-57
2022/11/11 15:16:04;;;;;;;26.20;17.17;;;9.10;99.90;;;;;;5044139;28;20048;-56
2022/11/11 15:19:11;;;;;;;24.13;17.80;;;9.00;99.90;;;;;;5044266;28;20059;-54
2022/11/11 15:22:16;;;;;;;20.38;15.68;;;9.00;99.90;;;;;;5033060;28;20102;-55
2022/11/11 15:25:14;;;;;;;27.15;18.48;;;9.00;99.90;;;;;;5040435;28;20083;-56
2022/11/11 15:28:14;;;;;;;25.23;17.20;;;9.00;99.90;;;;;;5040959;28;20153;-55
2022/11/11 15:31:21;;;;;;;25.20;16.52;;;8.90;99.90;;;;;;5042722;28;20410;-54
2022/11/11 15:34:29;;;;;;;26.10;17.02;;;8.80;99.90;;;;;;5038676;28;20068;-54
2022/11/11 15:37:18;;;;;;;33.17;20.27;;;8.80;99.90;;;;;;5042888;28;20192;-58
2022/11/11 15:40:05;;;;;;;31.55;19.80;;;8.70;99.90;;;;;;5038144;28;20052;-55
2022/11/11 15:42:52;;;;;;;31.07;17.87;;;8.70;99.90;;;;;;5039073;28;20067;-57
2022/11/11 15:45:37;;;;;;;26.83;18.55;;;8.60;99.90;;;;;;5040362;28;20052;-55
2022/11/11 15:48:37;;;;;;;26.75;18.38;;;8.60;99.90;;;;;;5039222;28;20060;-57
2022/11/11 15:51:34;;;;;;;27.35;18.95;;;8.50;99.90;;;;;;5054127;28;20535;-54
2022/11/11 15:54:21;;;;;;;23.65;16.00;;;8.50;99.90;;;;;;5037984;28;20157;-54
2022/11/11 15:57:29;;;;;;;24.45;17.42;;;8.50;99.90;;;;;;5039420;28;20051;-55